createdAt,value
2023-10-09T00:01:09.273Z,22.81
2023-10-09T00:03:35.656Z,22.72
2023-10-09T00:06:02.192Z,22.60
2023-10-09T00:08:28.470Z,22.80
2023-10-09T00:10:55.152Z,22.61
2023-10-09T00:13:21.819Z,22.59
2023-10-09T00:15:48.112Z,22.61
2023-10-09T00:18:14.470Z,22.82
2023-10-09T00:20:40.800Z,22.82
2023-10-09T00:23:07.117Z,22.77
2023-10-09T00:25:33.466Z,22.79
2023-10-09T00:27:59.733Z,22.86
2023-10-09T00:30:26.022Z,22.60
2023-10-09T00:32:52.482Z,22.65
2023-10-09T00:35:18.801Z,22.42
2023-10-09T00:37:45.065Z,22.58
2023-10-09T00:40:11.320Z,22.42
2023-10-09T00:42:37.617Z,22.65
2023-10-09T00:45:03.989Z,22.65
2023-10-09T00:47:30.356Z,22.65
2023-10-09T00:49:56.629Z,22.54
2023-10-09T00:52:22.950Z,22.38
2023-10-09T00:54:49.427Z,22.40
2023-10-09T00:57:15.733Z,22.30
2023-10-09T00:59:42.036Z,22.11
2023-10-09T01:02:08.306Z,22.17
2023-10-09T01:04:34.683Z,22.14
2023-10-09T01:07:00.977Z,22.29
2023-10-09T01:09:27.313Z,22.00
2023-10-09T01:11:53.826Z,22.02
2023-10-09T01:14:20.222Z,21.99
2023-10-09T01:16:46.486Z,22.00
2023-10-09T01:19:12.742Z,21.91
2023-10-09T01:21:39.160Z,21.99
2023-10-09T01:24:06.341Z,21.72
2023-10-09T01:26:32.849Z,21.90
2023-10-09T01:28:59.211Z,21.99
2023-10-09T01:31:25.546Z,21.84
2023-10-09T01:33:52.101Z,21.76
2023-10-09T01:36:18.542Z,21.78
2023-10-09T01:38:44.822Z,21.92
2023-10-09T01:41:11.078Z,21.83
2023-10-09T01:43:37.433Z,21.79
2023-10-09T01:46:03.740Z,21.92
2023-10-09T01:48:30.094Z,21.88
2023-10-09T01:50:56.633Z,21.74
2023-10-09T01:53:22.936Z,21.69
2023-10-09T01:55:49.185Z,21.64
2023-10-09T01:58:15.444Z,21.58
2023-10-09T02:00:41.786Z,21.70
2023-10-09T02:03:08.179Z,21.43
2023-10-09T02:05:34.598Z,21.47
2023-10-09T02:08:00.863Z,21.53
2023-10-09T02:10:27.376Z,21.40
2023-10-09T02:12:53.734Z,21.29
2023-10-09T02:15:20.141Z,21.33
2023-10-09T02:17:46.628Z,21.42
2023-10-09T02:20:13.566Z,21.36
2023-10-09T02:22:39.828Z,21.63
2023-10-09T02:25:06.092Z,21.28
2023-10-09T02:27:32.415Z,21.42
2023-10-09T02:29:58.979Z,21.33
2023-10-09T02:32:25.264Z,21.41
2023-10-09T02:34:51.666Z,21.24
2023-10-09T02:37:17.923Z,21.42
2023-10-09T02:39:44.374Z,21.23
2023-10-09T02:42:10.656Z,21.18
2023-10-09T02:44:37.111Z,21.31
2023-10-09T02:47:03.624Z,21.22
2023-10-09T02:49:29.894Z,21.25
2023-10-09T02:51:56.161Z,21.18
2023-10-09T02:54:22.509Z,21.26
2023-10-09T02:56:48.967Z,21.02
2023-10-09T02:59:15.219Z,20.97
2023-10-09T03:01:41.525Z,20.99
2023-10-09T03:04:07.901Z,21.05
2023-10-09T03:06:34.443Z,21.07
2023-10-09T03:09:00.721Z,21.13
2023-10-09T03:11:27.009Z,20.91
2023-10-09T03:13:53.324Z,20.98
2023-10-09T03:16:22.119Z,20.92
2023-10-09T03:18:48.937Z,21.13
2023-10-09T03:21:15.249Z,21.01
2023-10-09T03:23:41.648Z,21.05
2023-10-09T03:26:21.070Z,20.78
2023-10-09T03:28:48.354Z,20.84
2023-10-09T03:31:14.687Z,20.75
2023-10-09T03:33:41.098Z,20.91
2023-10-09T03:36:07.481Z,20.71
2023-10-09T03:38:33.783Z,20.84
2023-10-09T03:41:00.057Z,20.85
2023-10-09T03:43:26.341Z,20.70
2023-10-09T03:45:52.583Z,20.76
2023-10-09T03:48:19.099Z,20.84
2023-10-09T03:50:45.382Z,20.85
2023-10-09T03:53:11.651Z,20.89
2023-10-09T03:55:38.107Z,20.91
2023-10-09T03:58:04.582Z,20.78
2023-10-09T04:00:30.948Z,20.81
2023-10-09T04:02:57.731Z,20.88
2023-10-09T04:05:24.277Z,20.82
2023-10-09T04:07:50.725Z,20.77
2023-10-09T04:10:16.988Z,20.83
2023-10-09T04:12:43.429Z,20.85
2023-10-09T04:15:09.910Z,20.78
2023-10-09T04:17:36.661Z,20.77
2023-10-09T04:20:03.341Z,20.76
2023-10-09T04:22:29.846Z,20.64
2023-10-09T04:24:56.099Z,20.66
2023-10-09T04:27:22.588Z,20.54
2023-10-09T04:29:48.994Z,20.42
2023-10-09T04:32:16.689Z,20.61
2023-10-09T04:34:45.040Z,20.51
2023-10-09T04:37:11.310Z,20.36
2023-10-09T04:39:37.672Z,20.48
2023-10-09T04:42:04.116Z,20.35
2023-10-09T04:44:30.421Z,20.54
2023-10-09T04:46:56.702Z,20.49
2023-10-09T04:49:23.028Z,20.44
2023-10-09T04:51:49.465Z,20.37
2023-10-09T04:54:15.743Z,20.36
2023-10-09T04:56:42.176Z,20.14
2023-10-09T04:59:08.521Z,20.37
2023-10-09T05:01:34.929Z,20.39
2023-10-09T05:04:01.353Z,20.32
2023-10-09T05:06:27.941Z,20.30
2023-10-09T05:08:54.323Z,20.31
2023-10-09T05:11:21.942Z,20.16
2023-10-09T05:13:48.494Z,20.10
2023-10-09T05:16:14.798Z,20.15
2023-10-09T05:18:41.131Z,20.12
2023-10-09T05:21:07.503Z,20.12
2023-10-09T05:23:33.878Z,20.18
2023-10-09T05:26:00.552Z,20.22
2023-10-09T05:28:26.890Z,20.29
2023-10-09T05:30:53.382Z,20.21
2023-10-09T05:33:19.926Z,20.20
2023-10-09T05:35:46.348Z,20.04
2023-10-09T05:38:12.593Z,20.21
2023-10-09T05:40:38.960Z,20.20
2023-10-09T05:43:05.230Z,20.25
2023-10-09T05:45:31.527Z,20.19
2023-10-09T05:47:57.838Z,20.05
2023-10-09T05:50:24.389Z,19.91
2023-10-09T05:52:50.867Z,19.99
2023-10-09T05:55:17.117Z,20.11
2023-10-09T05:57:43.396Z,20.12
2023-10-09T06:00:09.775Z,20.08
2023-10-09T06:02:40.436Z,20.00
2023-10-09T06:05:11.828Z,20.07
2023-10-09T06:07:38.353Z,20.11
2023-10-09T06:10:04.764Z,19.97
2023-10-09T06:12:31.186Z,19.90
2023-10-09T06:14:57.562Z,20.04
2023-10-09T06:17:23.964Z,20.03
2023-10-09T06:19:50.227Z,19.88
2023-10-09T06:22:16.515Z,19.96
2023-10-09T06:24:43.223Z,19.97
2023-10-09T06:27:09.822Z,19.93
2023-10-09T06:29:36.102Z,19.90
2023-10-09T06:32:02.363Z,19.89
2023-10-09T06:34:28.917Z,19.91
2023-10-09T06:36:55.289Z,19.90
2023-10-09T06:39:21.624Z,19.82
2023-10-09T06:41:47.969Z,19.82
2023-10-09T06:44:14.645Z,19.89
2023-10-09T06:46:41.214Z,19.71
2023-10-09T06:49:07.644Z,19.89
2023-10-09T06:51:34.116Z,19.94
2023-10-09T06:54:00.535Z,19.83
2023-10-09T06:56:26.782Z,19.70
2023-10-09T06:58:53.263Z,19.80
2023-10-09T07:01:19.759Z,19.81
2023-10-09T07:03:46.082Z,19.92
2023-10-09T07:06:12.412Z,19.62
2023-10-09T07:08:38.931Z,19.86
2023-10-09T07:11:05.396Z,19.73
2023-10-09T07:13:31.670Z,19.85
2023-10-09T07:15:58.236Z,19.71
2023-10-09T07:18:25.055Z,19.66
2023-10-09T07:20:51.562Z,19.76
2023-10-09T07:23:17.838Z,19.96
2023-10-09T07:25:44.237Z,19.85
2023-10-09T07:28:10.539Z,19.93
2023-10-09T07:30:36.816Z,19.97
2023-10-09T07:33:03.085Z,20.07
2023-10-09T07:35:29.362Z,20.11
2023-10-09T07:37:55.649Z,20.09
2023-10-09T07:40:22.111Z,20.25
2023-10-09T07:42:48.384Z,20.30
2023-10-09T07:45:17.588Z,20.34
2023-10-09T07:47:43.914Z,20.39
2023-10-09T07:50:10.236Z,20.56
2023-10-09T07:52:36.487Z,20.54
2023-10-09T07:55:02.955Z,20.61
2023-10-09T07:57:29.668Z,20.71
2023-10-09T07:59:55.967Z,20.81
2023-10-09T08:02:22.238Z,20.85
2023-10-09T08:04:48.550Z,20.79
2023-10-09T08:08:07.902Z,20.84
2023-10-09T08:10:01.176Z,21.02
2023-10-09T08:12:31.367Z,21.01
2023-10-09T08:14:57.672Z,21.07
2023-10-09T08:17:23.942Z,21.07
2023-10-09T08:19:50.289Z,21.21
2023-10-09T08:22:16.597Z,21.13
2023-10-09T08:24:43.377Z,21.21
2023-10-09T08:27:09.785Z,21.21
2023-10-09T08:29:36.093Z,21.28
2023-10-09T08:32:05.322Z,21.31
2023-10-09T08:35:00.542Z,21.41
2023-10-09T08:37:18.249Z,21.45
2023-10-09T08:39:44.724Z,21.41
2023-10-09T08:42:11.003Z,21.39
2023-10-09T08:44:37.275Z,21.42
2023-10-09T08:47:03.595Z,21.50
2023-10-09T08:49:30.126Z,21.58
2023-10-09T08:51:56.431Z,21.63
2023-10-09T08:54:25.503Z,21.70
2023-10-09T08:56:52.124Z,21.73
2023-10-09T08:59:18.589Z,21.82
2023-10-09T09:01:44.971Z,21.92
2023-10-09T09:04:11.289Z,22.01
2023-10-09T09:06:37.541Z,22.09
2023-10-09T09:09:03.845Z,22.12
2023-10-09T09:11:30.104Z,22.18
2023-10-09T09:13:59.574Z,22.27
2023-10-09T09:16:26.046Z,22.38
2023-10-09T09:18:52.431Z,22.48
2023-10-09T09:21:18.729Z,22.54
2023-10-09T09:23:45.150Z,22.66
2023-10-09T09:26:11.490Z,22.80
2023-10-09T09:28:39.409Z,22.86
2023-10-09T09:31:05.764Z,22.94
2023-10-09T09:33:32.307Z,23.00
2023-10-09T09:35:58.574Z,23.06
2023-10-09T09:38:25.035Z,23.17
2023-10-09T09:40:51.370Z,23.27
2023-10-09T09:43:17.752Z,23.34
2023-10-09T09:45:44.099Z,23.41
2023-10-09T09:48:10.385Z,23.49
2023-10-09T09:50:39.557Z,23.58
2023-10-09T09:53:06.068Z,23.68
2023-10-09T09:55:34.965Z,23.78
2023-10-09T09:58:01.439Z,23.90
2023-10-09T10:00:30.684Z,24.05
2023-10-09T10:02:57.157Z,24.13
2023-10-09T10:05:23.570Z,24.22
2023-10-09T10:07:49.894Z,24.33
2023-10-09T10:10:16.263Z,24.42
2023-10-09T10:12:42.795Z,24.53
2023-10-09T10:15:09.179Z,24.65
2023-10-09T10:17:35.584Z,24.76
2023-10-09T10:20:02.344Z,24.86
2023-10-09T10:22:29.061Z,24.96
2023-10-09T10:24:55.619Z,25.02
2023-10-09T10:27:21.933Z,25.11
2023-10-09T10:29:48.192Z,25.20
2023-10-09T10:32:14.449Z,25.31
2023-10-09T10:34:40.820Z,25.39
2023-10-09T10:37:07.116Z,25.46
2023-10-09T10:39:33.418Z,25.56
2023-10-09T10:41:59.988Z,25.62
2023-10-09T10:44:26.337Z,25.70
2023-10-09T10:46:52.731Z,25.76
2023-10-09T10:49:19.085Z,25.87
2023-10-09T10:51:46.832Z,25.97
2023-10-09T10:54:13.301Z,26.05
2023-10-09T10:56:39.755Z,26.11
2023-10-09T10:59:06.117Z,26.19
2023-10-09T11:01:32.800Z,26.28
2023-10-09T11:03:59.406Z,26.36
2023-10-09T11:06:25.939Z,26.42
2023-10-09T11:08:52.379Z,26.52
2023-10-09T11:11:18.629Z,26.60
2023-10-09T11:13:45.052Z,26.68
2023-10-09T11:16:11.443Z,26.76
2023-10-09T11:18:37.783Z,26.82
2023-10-09T11:21:04.240Z,26.89
2023-10-09T11:23:30.779Z,26.95
2023-10-09T11:25:57.051Z,27.04
2023-10-09T11:28:23.437Z,27.14
2023-10-09T11:30:49.753Z,27.21
2023-10-09T11:33:16.150Z,27.28
2023-10-09T11:35:42.419Z,27.34
2023-10-09T11:38:08.759Z,27.42
2023-10-09T11:40:35.150Z,27.48
2023-10-09T11:43:01.769Z,27.55
2023-10-09T11:45:28.048Z,27.60
2023-10-09T11:47:54.620Z,27.66
2023-10-09T11:50:20.938Z,27.71
2023-10-09T11:52:47.287Z,27.77
2023-10-09T11:55:13.639Z,27.87
2023-10-09T11:57:39.898Z,27.98
2023-10-09T12:00:06.221Z,28.06
2023-10-09T12:02:32.701Z,28.12
2023-10-09T12:04:59.129Z,28.21
2023-10-09T12:07:25.425Z,28.31
2023-10-09T12:09:51.684Z,28.41
2023-10-09T12:12:17.942Z,28.48
2023-10-09T12:14:44.203Z,28.54
2023-10-09T12:17:10.753Z,28.58
2023-10-09T12:19:37.165Z,28.69
2023-10-09T12:22:03.560Z,28.77
2023-10-09T12:24:29.938Z,28.84
2023-10-09T12:26:56.236Z,28.91
2023-10-09T12:29:22.533Z,28.96
2023-10-09T12:31:48.835Z,29.02
2023-10-09T12:34:15.223Z,29.07
2023-10-09T12:36:41.617Z,29.13
2023-10-09T12:39:07.931Z,29.17
2023-10-09T12:41:34.193Z,29.23
2023-10-09T12:44:00.542Z,29.29
2023-10-09T12:46:27.184Z,29.34
2023-10-09T12:48:53.709Z,29.40
2023-10-09T12:51:20.037Z,29.46
2023-10-09T12:53:46.286Z,29.50
2023-10-09T12:56:12.605Z,29.50
2023-10-09T12:58:41.112Z,29.56
2023-10-09T13:01:09.618Z,29.67
2023-10-09T13:03:35.942Z,29.80
2023-10-09T13:06:02.299Z,29.88
2023-10-09T13:08:28.601Z,29.92
2023-10-09T13:10:54.920Z,29.95
2023-10-09T13:13:21.270Z,29.93
2023-10-09T13:15:47.531Z,29.96
2023-10-09T13:18:13.867Z,29.99
2023-10-09T13:20:40.167Z,30.05
2023-10-09T13:23:06.481Z,30.12
2023-10-09T13:25:35.528Z,30.20
2023-10-09T13:28:02.523Z,30.26
2023-10-09T13:30:28.784Z,30.33
2023-10-09T13:32:55.098Z,30.38
2023-10-09T13:35:21.462Z,30.39
2023-10-09T13:37:47.771Z,30.42
2023-10-09T13:40:14.107Z,30.46
2023-10-09T13:42:40.369Z,30.50
2023-10-09T13:45:06.843Z,30.50
2023-10-09T13:47:33.297Z,30.53
2023-10-09T13:49:59.668Z,30.57
2023-10-09T13:52:25.933Z,30.63
2023-10-09T13:54:52.193Z,30.69
2023-10-09T13:57:18.442Z,30.75
2023-10-09T13:59:44.745Z,30.80
2023-10-09T14:02:11.699Z,30.84
2023-10-09T14:04:38.222Z,30.85
2023-10-09T14:07:04.582Z,30.90
2023-10-09T14:09:30.833Z,30.94
2023-10-09T14:11:57.095Z,30.96
2023-10-09T14:14:23.459Z,30.95
2023-10-09T14:16:49.808Z,30.96
2023-10-09T14:19:16.100Z,31.01
2023-10-09T14:21:42.386Z,31.03
2023-10-09T14:24:08.653Z,31.08
2023-10-09T14:26:34.907Z,31.13
2023-10-09T14:29:01.196Z,31.16
2023-10-09T14:31:27.507Z,31.19
2023-10-09T14:33:53.777Z,31.21
2023-10-09T14:36:21.787Z,31.23
2023-10-09T14:38:48.209Z,31.26
2023-10-09T14:41:14.498Z,31.28
2023-10-09T14:43:40.814Z,31.31
2023-10-09T14:46:07.280Z,31.35
2023-10-09T14:48:33.556Z,31.38
2023-10-09T14:50:59.978Z,31.41
2023-10-09T14:53:26.255Z,31.44
2023-10-09T14:55:52.602Z,31.49
2023-10-09T14:58:18.901Z,31.55
2023-10-09T15:00:45.227Z,31.57
2023-10-09T15:03:11.505Z,31.58
2023-10-09T15:05:37.949Z,31.62
2023-10-09T15:08:04.208Z,31.64
2023-10-09T15:10:31.110Z,31.58
2023-10-09T15:12:57.606Z,31.62
2023-10-09T15:15:23.861Z,31.63
2023-10-09T15:17:50.276Z,31.60
2023-10-09T15:20:16.933Z,31.58
2023-10-09T15:22:43.575Z,31.57
2023-10-09T15:25:09.879Z,31.56
2023-10-09T15:27:36.141Z,31.58
2023-10-09T15:30:02.439Z,31.57
2023-10-09T15:32:28.789Z,31.58
2023-10-09T15:34:55.170Z,31.58
2023-10-09T15:37:21.613Z,31.56
2023-10-09T15:39:47.865Z,31.56
2023-10-09T15:42:14.164Z,31.32
2023-10-09T15:44:40.470Z,31.57
2023-10-09T15:47:06.774Z,31.57
2023-10-09T15:49:33.233Z,31.57
2023-10-09T15:51:59.535Z,31.58
2023-10-09T15:54:25.789Z,31.58
2023-10-09T15:57:02.534Z,31.57
2023-10-09T15:59:38.581Z,31.54
2023-10-09T16:02:05.093Z,31.51
2023-10-09T16:04:31.380Z,31.47
2023-10-09T16:06:57.732Z,31.41
2023-10-09T16:09:24.046Z,31.35
2023-10-09T16:11:50.317Z,31.30
2023-10-09T16:14:17.179Z,31.24
2023-10-09T16:16:45.030Z,31.23
2023-10-09T16:19:12.181Z,31.18
2023-10-09T16:21:38.442Z,31.13
2023-10-09T16:24:07.549Z,31.09
2023-10-09T16:26:33.983Z,31.02
2023-10-09T16:29:00.297Z,30.96
2023-10-09T16:31:26.754Z,30.90
2023-10-09T16:33:53.061Z,30.81
2023-10-09T16:36:19.382Z,30.78
2023-10-09T16:38:45.658Z,30.73
2023-10-09T16:41:11.942Z,30.69
2023-10-09T16:43:38.355Z,30.62
2023-10-09T16:46:04.776Z,30.55
2023-10-09T16:48:31.066Z,30.48
2023-10-09T16:50:57.396Z,30.39
2023-10-09T16:53:23.655Z,30.28
2023-10-09T16:55:49.955Z,30.22
2023-10-09T16:58:16.523Z,30.17
2023-10-09T17:00:43.016Z,30.08
2023-10-09T17:03:09.378Z,30.01
2023-10-09T17:05:35.821Z,29.87
2023-10-09T17:08:02.237Z,29.69
2023-10-09T17:10:28.661Z,29.60
2023-10-09T17:12:55.281Z,29.58
2023-10-09T17:15:21.562Z,29.45
2023-10-09T17:17:47.816Z,29.40
2023-10-09T17:20:14.155Z,29.43
2023-10-09T17:22:40.662Z,29.29
2023-10-09T17:25:07.031Z,29.23
2023-10-09T17:27:33.299Z,29.19
2023-10-09T17:29:59.831Z,29.07
2023-10-09T17:32:26.173Z,28.96
2023-10-09T17:34:52.498Z,28.85
2023-10-09T17:37:19.081Z,28.75
2023-10-09T17:39:45.341Z,28.65
2023-10-09T17:42:11.684Z,28.54
2023-10-09T17:44:37.953Z,28.46
2023-10-09T17:47:04.471Z,28.38
2023-10-09T17:49:30.807Z,28.31
2023-10-09T17:51:57.086Z,28.14
2023-10-09T17:54:23.360Z,28.10
2023-10-09T17:56:49.808Z,28.04
2023-10-09T17:59:16.208Z,27.94
2023-10-09T18:01:42.694Z,28.01
2023-10-09T18:04:09.133Z,27.78
2023-10-09T18:06:35.449Z,27.75
2023-10-09T18:09:01.928Z,27.80
2023-10-09T18:11:28.199Z,27.80
2023-10-09T18:13:54.511Z,27.57
2023-10-09T18:16:20.902Z,27.46
2023-10-09T18:18:47.194Z,27.41
2023-10-09T18:21:13.589Z,27.19
2023-10-09T18:23:40.037Z,27.21
2023-10-09T18:26:06.452Z,27.33
2023-10-09T18:28:32.988Z,27.16
2023-10-09T18:30:59.288Z,27.15
2023-10-09T18:33:25.596Z,26.93
2023-10-09T18:35:51.919Z,26.96
2023-10-09T18:38:18.215Z,27.08
2023-10-09T18:40:44.550Z,27.30
2023-10-09T18:43:10.833Z,27.20
2023-10-09T18:45:37.078Z,27.06
2023-10-09T18:48:03.345Z,27.16
2023-10-09T18:50:29.789Z,27.20
2023-10-09T18:52:56.290Z,27.10
2023-10-09T18:55:22.746Z,26.93
2023-10-09T18:57:49.036Z,26.89
2023-10-09T19:00:15.329Z,26.87
2023-10-09T19:02:41.721Z,26.65
2023-10-09T19:05:08.025Z,26.67
2023-10-09T19:07:34.349Z,26.39
2023-10-09T19:10:00.851Z,26.43
2023-10-09T19:12:27.116Z,26.38
2023-10-09T19:14:53.579Z,26.05
2023-10-09T19:17:19.903Z,26.31
2023-10-09T19:19:46.341Z,26.18
2023-10-09T19:22:12.618Z,25.99
2023-10-09T19:24:38.892Z,25.89
2023-10-09T19:27:05.181Z,25.93
2023-10-09T19:29:31.703Z,25.94
2023-10-09T19:31:58.058Z,26.04
2023-10-09T19:34:24.368Z,26.06
2023-10-09T19:36:50.830Z,25.69
2023-10-09T19:39:17.099Z,25.76
2023-10-09T19:41:43.528Z,26.04
2023-10-09T19:44:09.831Z,26.28
2023-10-09T19:46:36.292Z,26.23
2023-10-09T19:49:02.584Z,26.15
2023-10-09T19:51:28.880Z,26.15
2023-10-09T19:53:55.186Z,26.01
2023-10-09T19:56:21.683Z,26.06
2023-10-09T19:58:48.065Z,26.17
2023-10-09T20:01:14.673Z,26.17
2023-10-09T20:03:41.102Z,26.08
2023-10-09T20:06:07.530Z,26.08
2023-10-09T20:08:34.039Z,26.01
2023-10-09T20:11:00.341Z,26.10
2023-10-09T20:13:26.734Z,26.02
2023-10-09T20:15:53.232Z,25.98
2023-10-09T20:18:19.750Z,25.70
2023-10-09T20:20:46.120Z,25.90
2023-10-09T20:23:12.622Z,25.49
2023-10-09T20:25:38.900Z,25.62
2023-10-09T20:28:05.325Z,25.50
2023-10-09T20:30:31.799Z,25.47
2023-10-09T20:32:58.182Z,25.34
2023-10-09T20:35:24.769Z,25.28
2023-10-09T20:37:51.292Z,24.73
2023-10-09T20:40:17.552Z,25.00
2023-10-09T20:42:43.925Z,24.47
2023-10-09T20:45:10.208Z,24.90
2023-10-09T20:47:36.510Z,24.57
2023-10-09T20:50:02.946Z,24.59
2023-10-09T20:52:29.230Z,24.55
2023-10-09T20:54:55.559Z,24.36
2023-10-09T20:57:22.026Z,24.72
2023-10-09T20:59:48.303Z,24.57
2023-10-09T21:02:14.828Z,24.41
2023-10-09T21:04:41.209Z,24.30
2023-10-09T21:07:07.550Z,24.47
2023-10-09T21:09:33.829Z,24.20
2023-10-09T21:12:00.118Z,24.30
2023-10-09T21:14:26.510Z,24.18
2023-10-09T21:16:53.046Z,24.12
2023-10-09T21:19:19.441Z,24.07
2023-10-09T21:21:45.830Z,24.05
2023-10-09T21:24:12.291Z,23.72
2023-10-09T21:26:38.549Z,24.31
2023-10-09T21:29:05.144Z,24.09
2023-10-09T21:31:31.433Z,23.88
2023-10-09T21:33:57.815Z,24.26
2023-10-09T21:36:24.107Z,24.16
2023-10-09T21:38:50.610Z,24.44
2023-10-09T21:41:17.143Z,24.05
2023-10-09T21:43:43.454Z,24.12
2023-10-09T21:46:09.760Z,24.00
2023-10-09T21:48:36.274Z,24.16
2023-10-09T21:51:02.731Z,24.20
2023-10-09T21:53:29.102Z,24.47
2023-10-09T21:55:55.563Z,24.55
2023-10-09T21:58:21.991Z,24.25
2023-10-09T22:00:48.328Z,24.29
2023-10-09T22:03:15.031Z,24.08
2023-10-09T22:05:41.576Z,24.14
2023-10-09T22:08:08.035Z,24.27
2023-10-09T22:10:34.319Z,24.08
2023-10-09T22:13:00.565Z,24.00
2023-10-09T22:15:27.002Z,24.25
2023-10-09T22:17:53.499Z,24.16
2023-10-09T22:20:19.855Z,24.18
2023-10-09T22:22:46.416Z,23.90
2023-10-09T22:25:12.910Z,24.07
2023-10-09T22:27:39.153Z,24.12
2023-10-09T22:30:05.448Z,23.99
2023-10-09T22:32:31.881Z,24.04
2023-10-09T22:34:58.197Z,23.94
2023-10-09T22:37:24.547Z,23.77
2023-10-09T22:39:50.796Z,23.53
2023-10-09T22:42:17.228Z,23.36
2023-10-09T22:44:43.495Z,23.80
2023-10-09T22:47:09.810Z,23.72
2023-10-09T22:49:36.160Z,23.72
2023-10-09T22:52:02.662Z,23.62
2023-10-09T22:54:28.910Z,23.76
2023-10-09T22:56:55.178Z,23.76
2023-10-09T22:59:21.577Z,23.53
2023-10-09T23:01:47.933Z,23.41
2023-10-09T23:04:14.302Z,23.68
2023-10-09T23:06:40.560Z,23.42
2023-10-09T23:09:06.823Z,23.42
2023-10-09T23:11:33.207Z,23.52
2023-10-09T23:13:59.472Z,23.46
2023-10-09T23:16:25.925Z,23.21
2023-10-09T23:18:52.378Z,23.34
2023-10-09T23:21:18.625Z,23.20
2023-10-09T23:23:45.085Z,23.42
2023-10-09T23:26:11.428Z,23.18
2023-10-09T23:28:37.779Z,23.04
2023-10-09T23:31:04.340Z,23.02
2023-10-09T23:33:30.608Z,23.23
2023-10-09T23:35:57.079Z,23.02
2023-10-09T23:38:23.715Z,23.10
2023-10-09T23:40:50.140Z,23.00
2023-10-09T23:43:16.695Z,22.89
2023-10-09T23:45:43.176Z,23.15
2023-10-09T23:48:09.515Z,22.97
2023-10-09T23:50:35.824Z,22.72
2023-10-09T23:53:02.202Z,23.04
2023-10-09T23:55:28.508Z,23.15
2023-10-09T23:57:54.988Z,22.85
